Terminal Aerodrome Forecast
Issued by NWS Chicago, IL

Home | Current Version | Previous Version | Graphics & Text | Print | Product List | Glossary On
Versions: 1 2 3 4 5 6 7 8 9 10 11 12 13 14 15 16 17 18 19 20 21 22 23 24 25 26 27 28 29
000
FTUS43 KLOT 190302 AAB
TAFRFD
TAF AMD
KRFD 190302Z 1903/1924 09009KT 4SM -SHRA BR OVC009
      TEMPO 1903/1907 1 1/2SM -DZ BR OVC006
     FM190700 08007KT 5SM BR VCSH BKN006 OVC012
     FM191400 30005KT P6SM SCT008 BKN015 OVC025
     FM191800 29006KT P6SM BKN025
     FM192000 29007KT P6SM BKN035=

USA.gov is the U.S. government's official web portal to all federal, state and local government web resources and services.